Allen, South Dakota
Current Conditions -  °F | °C
As of 6:52 PM on Saturday 25 Oct 2014 (Local Time) from KIEN Reporting Station
Clear Clear  
Wind Chill: 57°   Ceiling: Unl
Heat Index: 57°   Visibility: 10mi
Dew Point: 38°   Wind: 13mph
Humidity: 49%   Direction: 60°ENE
Pressure: 29.95"   Gusts: NA
Location:  43.28°N, 101.93°W
Report Text: KIEN 260052Z AUTO 06011KT 10SM CLR 14/03 A2995 RMK AO2 SLP151 T01390033
Loading
Personal Weather Stations






























Interactive Weather Map New forecast layout! Learn more

10-Day Weather Forecast

Advertisements
Track Severe Weather on mobile